createdAt,value
2018-09-23T00:02:05.584Z,8.28
2018-09-23T00:04:33.324Z,8.20
2018-09-23T00:07:00.984Z,8.17
2018-09-23T00:09:28.679Z,8.15
2018-09-23T00:11:56.343Z,8.11
2018-09-23T00:14:24.061Z,8.14
2018-09-23T00:16:51.726Z,8.19
2018-09-23T00:19:19.395Z,8.15
2018-09-23T00:21:47.140Z,8.13
2018-09-23T00:24:14.836Z,8.28
2018-09-23T00:26:42.508Z,8.30
2018-09-23T00:29:10.212Z,8.26
2018-09-23T00:31:37.937Z,8.25
2018-09-23T00:34:05.608Z,8.25
2018-09-23T00:36:33.325Z,8.28
2018-09-23T00:39:01.004Z,8.26
2018-09-23T00:41:28.687Z,8.23
2018-09-23T00:43:56.420Z,8.20
2018-09-23T00:46:24.096Z,8.20
2018-09-23T00:48:51.865Z,8.19
2018-09-23T00:51:19.580Z,8.15
2018-09-23T00:53:47.250Z,8.18
2018-09-23T00:56:15.033Z,8.17
2018-09-23T00:58:42.720Z,8.18
2018-09-23T01:01:10.523Z,8.15
2018-09-23T01:03:38.212Z,8.14
2018-09-23T01:06:05.900Z,8.22
2018-09-23T01:08:33.573Z,8.22
2018-09-23T01:11:01.253Z,8.17
2018-09-23T01:13:28.903Z,8.14
2018-09-23T01:15:56.596Z,8.10
2018-09-23T01:18:24.287Z,8.08
2018-09-23T01:20:51.966Z,8.10
2018-09-23T01:23:19.619Z,8.06
2018-09-23T01:25:47.331Z,8.06
2018-09-23T01:28:15.000Z,7.97
2018-09-23T01:30:42.724Z,7.85
2018-09-23T01:33:10.423Z,7.81
2018-09-23T01:35:38.083Z,7.76
2018-09-23T01:38:05.813Z,7.74
2018-09-23T01:40:33.540Z,7.71
2018-09-23T01:43:01.188Z,7.71
2018-09-23T01:45:28.860Z,7.71
2018-09-23T01:47:56.567Z,7.72
2018-09-23T01:50:24.228Z,7.70
2018-09-23T01:52:51.920Z,7.65
2018-09-23T01:55:19.624Z,7.71
2018-09-23T01:57:47.344Z,7.67
2018-09-23T02:00:15.009Z,7.63
2018-09-23T02:02:43.398Z,7.56
2018-09-23T02:05:11.132Z,7.51
2018-09-23T02:07:38.799Z,7.60
2018-09-23T02:10:06.490Z,7.61
2018-09-23T02:12:34.176Z,7.58
2018-09-23T02:15:01.848Z,7.53
2018-09-23T02:17:29.556Z,7.46
2018-09-23T02:19:57.231Z,7.45
2018-09-23T02:22:24.928Z,7.40
2018-09-23T02:24:52.648Z,7.35
2018-09-23T02:27:20.307Z,7.26
2018-09-23T02:29:47.992Z,7.23
2018-09-23T02:32:15.716Z,7.23
2018-09-23T02:34:43.380Z,7.21
2018-09-23T02:37:11.095Z,7.21
2018-09-23T02:39:38.783Z,7.23
2018-09-23T02:42:06.484Z,7.21
2018-09-23T02:44:34.143Z,7.15
2018-09-23T02:47:01.878Z,7.02
2018-09-23T02:49:29.559Z,6.97
2018-09-23T02:51:57.248Z,6.86
2018-09-23T02:54:24.973Z,6.76
2018-09-23T02:56:52.675Z,6.70
2018-09-23T02:59:20.396Z,6.64
2018-09-23T03:01:48.055Z,6.62
2018-09-23T03:04:15.720Z,6.54
2018-09-23T03:06:43.404Z,6.50
2018-09-23T03:09:11.121Z,6.53
2018-09-23T03:11:38.788Z,6.46
2018-09-23T03:14:06.499Z,6.40
2018-09-23T03:16:34.192Z,6.37
2018-09-23T03:19:01.876Z,6.34
2018-09-23T03:21:29.552Z,6.28
2018-09-23T03:23:57.295Z,6.18
2018-09-23T03:26:24.948Z,6.10
2018-09-23T03:28:52.619Z,6.07
2018-09-23T03:31:20.310Z,6.05
2018-09-23T03:33:47.985Z,5.99
2018-09-23T03:36:15.660Z,5.97
2018-09-23T03:38:43.435Z,5.94
2018-09-23T03:41:11.092Z,5.93
2018-09-23T03:43:38.775Z,5.91
2018-09-23T03:46:06.457Z,5.86
2018-09-23T03:48:34.117Z,5.72
2018-09-23T03:51:01.907Z,5.68
2018-09-23T03:53:29.603Z,5.63
2018-09-23T03:55:57.336Z,5.56
2018-09-23T03:58:25.016Z,5.60
2018-09-23T04:00:52.684Z,5.61
2018-09-23T04:03:20.380Z,5.61
2018-09-23T04:05:48.047Z,5.57
2018-09-23T04:08:15.744Z,5.55
2018-09-23T04:10:43.411Z,5.52
2018-09-23T04:13:11.067Z,5.46
2018-09-23T04:15:38.776Z,5.42
2018-09-23T04:18:06.439Z,5.40
2018-09-23T04:20:34.184Z,5.46
2018-09-23T04:23:01.905Z,5.51
2018-09-23T04:25:29.575Z,5.54
2018-09-23T04:27:57.239Z,5.56
2018-09-23T04:30:24.935Z,5.56
2018-09-23T04:32:52.646Z,5.57
2018-09-23T04:35:20.382Z,5.54
2018-09-23T04:37:48.174Z,5.51
2018-09-23T04:40:15.870Z,5.56
2018-09-23T04:42:43.597Z,5.56
2018-09-23T04:45:11.281Z,5.59
2018-09-23T04:47:39.092Z,5.67
2018-09-23T04:50:06.838Z,5.72
2018-09-23T04:52:34.516Z,5.79
2018-09-23T04:55:02.231Z,5.81
2018-09-23T04:57:29.903Z,5.84
2018-09-23T04:59:57.588Z,5.93
2018-09-23T05:02:25.271Z,6.01
2018-09-23T05:04:52.940Z,6.14
2018-09-23T05:07:20.923Z,6.27
2018-09-23T05:09:48.672Z,6.37
2018-09-23T05:12:16.363Z,6.49
2018-09-23T05:14:44.493Z,6.62
2018-09-23T05:17:12.239Z,6.75
2018-09-23T05:19:39.918Z,6.89
2018-09-23T05:22:07.746Z,7.02
2018-09-23T05:24:35.399Z,7.16
2018-09-23T05:27:03.061Z,7.34
2018-09-23T05:29:30.818Z,7.43
2018-09-23T05:31:58.551Z,7.52
2018-09-23T05:34:26.243Z,7.72
2018-09-23T05:36:53.975Z,7.93
2018-09-23T05:39:21.619Z,8.11
2018-09-23T05:41:49.267Z,8.18
2018-09-23T05:44:16.984Z,8.28
2018-09-23T05:46:44.673Z,8.36
2018-09-23T05:49:12.326Z,8.41
2018-09-23T05:51:40.033Z,8.43
2018-09-23T05:54:07.723Z,8.51
2018-09-23T05:56:35.392Z,8.58
2018-09-23T05:59:03.070Z,8.54
2018-09-23T06:01:30.788Z,8.45
2018-09-23T06:03:58.459Z,8.40
2018-09-23T06:06:26.164Z,8.36
2018-09-23T06:08:53.951Z,8.35
2018-09-23T06:11:21.625Z,8.37
2018-09-23T06:13:49.321Z,8.39
2018-09-23T06:16:17.017Z,8.51
2018-09-23T06:18:44.696Z,8.72
2018-09-23T06:21:12.360Z,8.75
2018-09-23T06:23:40.447Z,8.72
2018-09-23T06:26:08.116Z,8.76
2018-09-23T06:28:35.775Z,8.75
2018-09-23T06:31:03.557Z,8.81
2018-09-23T06:33:31.230Z,8.93
2018-09-23T06:35:58.928Z,9.09
2018-09-23T06:38:26.694Z,9.15
2018-09-23T06:40:54.364Z,9.14
2018-09-23T06:43:22.423Z,9.25
2018-09-23T06:45:50.178Z,9.35
2018-09-23T06:48:18.164Z,9.42
2018-09-23T06:50:45.890Z,9.50
2018-09-23T06:53:13.551Z,9.58
2018-09-23T06:55:41.216Z,9.86
2018-09-23T06:58:08.884Z,10.15
2018-09-23T07:00:36.556Z,10.21
2018-09-23T07:03:04.365Z,10.30
2018-09-23T07:05:32.038Z,10.29
2018-09-23T07:07:59.719Z,10.37
2018-09-23T07:10:27.484Z,10.48
2018-09-23T07:12:55.131Z,10.71
2018-09-23T07:15:22.828Z,10.86
2018-09-23T07:17:50.557Z,10.91
2018-09-23T07:20:18.229Z,11.06
2018-09-23T07:22:45.950Z,11.23
2018-09-23T07:25:13.663Z,11.24
2018-09-23T07:27:41.365Z,11.05
2018-09-23T07:30:09.112Z,10.89
2018-09-23T07:32:36.780Z,10.74
2018-09-23T07:35:04.500Z,10.72
2018-09-23T07:37:32.192Z,10.70
2018-09-23T07:39:59.899Z,10.62
2018-09-23T07:42:27.549Z,10.59
2018-09-23T07:44:55.301Z,10.61
2018-09-23T07:47:22.956Z,10.70
2018-09-23T07:49:50.611Z,10.92
2018-09-23T07:52:18.320Z,11.36
2018-09-23T07:54:45.976Z,11.52
2018-09-23T07:57:13.653Z,11.62
2018-09-23T07:59:41.339Z,11.62
2018-09-23T08:02:09.015Z,11.62
2018-09-23T08:04:36.805Z,11.71
2018-09-23T08:07:04.533Z,11.87
2018-09-23T08:09:32.227Z,11.98
2018-09-23T08:11:59.927Z,12.09
2018-09-23T08:14:28.019Z,12.13
2018-09-23T08:16:55.676Z,12.24
2018-09-23T08:19:23.747Z,12.27
2018-09-23T08:21:51.643Z,12.40
2018-09-23T08:24:19.324Z,12.68
2018-09-23T08:26:47.017Z,12.68
2018-09-23T08:29:14.719Z,12.66
2018-09-23T08:31:42.404Z,12.84
2018-09-23T08:34:10.137Z,13.13
2018-09-23T08:36:37.800Z,13.31
2018-09-23T08:39:06.279Z,13.33
2018-09-23T08:41:34.019Z,13.23
2018-09-23T08:44:01.751Z,13.53
2018-09-23T08:46:30.271Z,13.92
2018-09-23T08:48:57.964Z,14.15
2018-09-23T08:51:25.627Z,14.20
2018-09-23T08:53:53.309Z,14.47
2018-09-23T08:56:21.015Z,14.52
2018-09-23T08:58:48.708Z,14.37
2018-09-23T09:01:16.355Z,14.59
2018-09-23T09:03:44.046Z,14.24
2018-09-23T09:06:11.794Z,14.47
2018-09-23T09:08:39.589Z,14.63
2018-09-23T09:11:07.280Z,14.10
2018-09-23T09:13:35.397Z,13.94
2018-09-23T09:16:03.236Z,13.88
2018-09-23T09:18:30.989Z,13.56
2018-09-23T09:20:58.779Z,13.64
2018-09-23T09:23:26.616Z,13.82
2018-09-23T09:25:54.365Z,14.05
2018-09-23T09:28:22.019Z,14.42
2018-09-23T09:30:49.755Z,14.44
2018-09-23T09:33:17.419Z,14.41
2018-09-23T09:35:45.084Z,14.59
2018-09-23T09:38:12.782Z,14.77
2018-09-23T09:40:40.501Z,14.51
2018-09-23T09:43:08.160Z,14.53
2018-09-23T09:45:35.850Z,14.57
2018-09-23T09:48:03.500Z,14.48
2018-09-23T09:50:31.188Z,14.26
2018-09-23T09:52:58.899Z,14.32
2018-09-23T09:55:26.635Z,14.21
2018-09-23T09:57:54.379Z,14.24
2018-09-23T10:00:27.716Z,14.48
2018-09-23T10:02:55.416Z,14.60
2018-09-23T10:05:23.083Z,14.67
2018-09-23T10:07:50.936Z,14.34
2018-09-23T10:10:18.916Z,14.32
2018-09-23T10:12:46.583Z,14.43
2018-09-23T10:15:14.452Z,14.70
2018-09-23T10:17:42.108Z,14.60
2018-09-23T10:20:09.803Z,14.47
2018-09-23T10:22:37.567Z,14.34
2018-09-23T10:25:05.324Z,14.40
2018-09-23T10:27:33.179Z,14.53
2018-09-23T10:30:00.849Z,14.60
2018-09-23T10:32:28.572Z,14.53
2018-09-23T10:34:56.255Z,14.67
2018-09-23T10:37:23.992Z,14.75
2018-09-23T10:39:51.647Z,14.60
2018-09-23T10:42:19.396Z,14.11
2018-09-23T10:44:47.108Z,13.99
2018-09-23T10:47:14.776Z,13.95
2018-09-23T10:49:42.693Z,14.08
2018-09-23T10:52:10.351Z,14.42
2018-09-23T10:54:38.041Z,14.72
2018-09-23T10:57:05.803Z,14.80
2018-09-23T10:59:33.594Z,14.76
2018-09-23T11:02:01.265Z,14.89
2018-09-23T11:04:28.940Z,14.92
2018-09-23T11:06:56.609Z,14.97
2018-09-23T11:09:24.328Z,15.01
2018-09-23T11:11:52.054Z,15.26
2018-09-23T11:14:19.753Z,15.17
2018-09-23T11:16:47.448Z,15.36
2018-09-23T11:19:15.155Z,15.36
2018-09-23T11:21:42.815Z,15.27
2018-09-23T11:24:10.583Z,15.35
2018-09-23T11:26:38.296Z,15.31
2018-09-23T11:29:06.070Z,15.29
2018-09-23T11:31:33.743Z,15.20
2018-09-23T11:34:01.480Z,15.14
2018-09-23T11:36:29.169Z,15.11
2018-09-23T11:38:56.844Z,14.95
2018-09-23T11:41:24.680Z,14.92
2018-09-23T11:43:52.372Z,14.81
2018-09-23T11:46:20.060Z,14.74
2018-09-23T11:48:47.776Z,14.71
2018-09-23T11:51:15.547Z,14.68
2018-09-23T11:53:43.215Z,14.46
2018-09-23T11:56:10.904Z,14.49
2018-09-23T11:58:38.588Z,14.44
2018-09-23T12:01:06.363Z,14.26
2018-09-23T12:03:34.033Z,14.22
2018-09-23T12:06:01.790Z,14.13
2018-09-23T12:08:29.622Z,14.00
2018-09-23T12:10:57.338Z,13.86
2018-09-23T12:13:24.991Z,13.97
2018-09-23T12:15:52.699Z,13.94
2018-09-23T12:18:20.383Z,13.84
2018-09-23T12:20:48.064Z,13.89
2018-09-23T12:23:15.778Z,13.74
2018-09-23T12:25:43.554Z,13.80
2018-09-23T12:28:11.168Z,13.93
2018-09-23T12:30:38.916Z,13.97
2018-09-23T12:33:07.475Z,13.75
2018-09-23T12:35:35.208Z,13.58
2018-09-23T12:38:02.941Z,13.41
2018-09-23T12:40:30.657Z,13.13
2018-09-23T12:42:58.333Z,12.99
2018-09-23T12:45:26.008Z,12.94
2018-09-23T12:47:53.684Z,12.78
2018-09-23T12:50:21.460Z,12.52
2018-09-23T12:52:49.134Z,12.39
2018-09-23T12:55:16.832Z,12.37
2018-09-23T12:57:44.513Z,12.26
2018-09-23T13:00:12.212Z,12.02
2018-09-23T13:02:39.981Z,11.82
2018-09-23T13:05:07.739Z,11.73
2018-09-23T13:07:35.440Z,11.65
2018-09-23T13:10:03.260Z,11.65
2018-09-23T13:12:30.912Z,11.60
2018-09-23T13:14:59.012Z,11.53
2018-09-23T13:17:26.672Z,11.47
2018-09-23T13:19:54.344Z,11.41
2018-09-23T13:22:22.056Z,11.27
2018-09-23T13:24:49.775Z,11.10
2018-09-23T13:27:17.473Z,11.02
2018-09-23T13:29:45.175Z,10.96
2018-09-23T13:32:12.855Z,10.99
2018-09-23T13:34:40.565Z,10.96
2018-09-23T13:37:08.295Z,10.92
2018-09-23T13:39:35.983Z,10.89
2018-09-23T13:42:03.672Z,10.86
2018-09-23T13:44:31.355Z,10.79
2018-09-23T13:46:59.264Z,10.78
2018-09-23T13:49:27.343Z,10.68
2018-09-23T13:51:55.114Z,10.60
2018-09-23T13:54:22.883Z,10.56
2018-09-23T13:56:50.577Z,10.57
2018-09-23T13:59:18.262Z,10.48
2018-09-23T14:01:45.927Z,10.35
2018-09-23T14:04:13.652Z,10.38
2018-09-23T14:06:41.368Z,10.33
2018-09-23T14:09:09.056Z,10.19
2018-09-23T14:11:36.776Z,10.13
2018-09-23T14:14:04.481Z,10.06
2018-09-23T14:16:32.156Z,9.92
2018-09-23T14:18:59.955Z,9.85
2018-09-23T14:21:27.740Z,9.79
2018-09-23T14:23:55.561Z,9.80
2018-09-23T14:26:23.828Z,9.81
2018-09-23T14:28:51.544Z,9.83
2018-09-23T14:31:19.236Z,9.70
2018-09-23T14:33:46.944Z,9.69
2018-09-23T14:36:14.672Z,9.67
2018-09-23T14:38:42.351Z,9.60
2018-09-23T14:41:10.043Z,9.55
2018-09-23T14:43:38.088Z,9.48
2018-09-23T14:46:06.103Z,9.43
2018-09-23T14:48:33.796Z,9.39
2018-09-23T14:51:01.492Z,9.33
2018-09-23T14:53:29.170Z,9.34
2018-09-23T14:55:56.847Z,9.31
2018-09-23T14:58:24.564Z,9.19
2018-09-23T15:00:52.239Z,9.12
2018-09-23T15:03:20.104Z,9.11
2018-09-23T15:05:48.137Z,9.15
2018-09-23T15:08:15.828Z,9.12
2018-09-23T15:10:43.542Z,9.03
2018-09-23T15:13:11.212Z,8.92
2018-09-23T15:15:38.907Z,8.85
2018-09-23T15:18:06.680Z,8.85
2018-09-23T15:20:34.372Z,8.79
2018-09-23T15:23:02.082Z,8.72
2018-09-23T15:25:29.771Z,8.66
2018-09-23T15:27:57.675Z,8.57
2018-09-23T15:30:25.428Z,8.51
2018-09-23T15:32:53.124Z,8.48
2018-09-23T15:35:20.804Z,8.46
2018-09-23T15:37:48.504Z,8.35
2018-09-23T15:40:16.173Z,8.25
2018-09-23T15:42:43.968Z,8.16
2018-09-23T15:45:11.722Z,8.10
2018-09-23T15:47:39.383Z,7.98
2018-09-23T15:50:07.063Z,7.88
2018-09-23T15:52:34.835Z,7.84
2018-09-23T15:55:02.520Z,7.79
2018-09-23T15:57:30.234Z,7.70
2018-09-23T15:59:57.932Z,7.60
2018-09-23T16:02:25.608Z,7.51
2018-09-23T16:04:53.344Z,7.41
2018-09-23T16:07:21.076Z,7.31
2018-09-23T16:09:48.813Z,7.21
2018-09-23T16:12:16.471Z,7.16
2018-09-23T16:14:44.265Z,7.02
2018-09-23T16:17:12.036Z,6.94
2018-09-23T16:19:39.748Z,6.96
2018-09-23T16:22:07.488Z,6.98
2018-09-23T16:24:35.152Z,6.99
2018-09-23T16:27:02.846Z,7.02
2018-09-23T16:29:30.604Z,7.01
2018-09-23T16:31:58.298Z,6.99
2018-09-23T16:34:27.033Z,6.91
2018-09-23T16:36:54.724Z,6.97
2018-09-23T16:39:22.436Z,6.98
2018-09-23T16:41:50.137Z,6.92
2018-09-23T16:44:17.801Z,6.85
2018-09-23T16:46:45.545Z,6.78
2018-09-23T16:49:13.199Z,6.70
2018-09-23T16:51:40.863Z,6.63
2018-09-23T16:54:08.572Z,6.56
2018-09-23T16:56:36.250Z,6.48
2018-09-23T16:59:04.090Z,6.38
2018-09-23T17:01:31.768Z,6.44
2018-09-23T17:03:59.437Z,6.43
2018-09-23T17:06:27.156Z,6.40
2018-09-23T17:08:54.871Z,6.40
2018-09-23T17:11:22.516Z,6.51
2018-09-23T17:13:50.198Z,6.56
2018-09-23T17:16:17.865Z,6.51
2018-09-23T17:18:45.545Z,6.46
2018-09-23T17:21:13.260Z,6.41
2018-09-23T17:23:40.997Z,6.34
2018-09-23T17:26:08.668Z,6.28
2018-09-23T17:28:36.440Z,6.27
2018-09-23T17:31:04.085Z,6.23
2018-09-23T17:33:31.749Z,6.23
2018-09-23T17:35:59.467Z,6.22
2018-09-23T17:38:27.141Z,6.18
2018-09-23T17:40:54.819Z,6.17
2018-09-23T17:43:22.553Z,6.09
2018-09-23T17:45:50.315Z,6.00
2018-09-23T17:48:17.967Z,5.98
2018-09-23T17:50:45.677Z,5.96
2018-09-23T17:53:13.398Z,5.93
2018-09-23T17:55:41.211Z,5.87
2018-09-23T17:58:08.873Z,5.82
2018-09-23T18:00:39.667Z,5.75
2018-09-23T18:03:07.383Z,5.71
2018-09-23T18:05:35.063Z,5.71
2018-09-23T18:08:02.832Z,5.73
2018-09-23T18:10:30.507Z,5.73
2018-09-23T18:12:58.192Z,5.73
2018-09-23T18:15:25.933Z,5.78
2018-09-23T18:17:53.612Z,5.81
2018-09-23T18:20:21.332Z,5.82
2018-09-23T18:22:49.064Z,5.79
2018-09-23T18:25:16.908Z,5.73
2018-09-23T18:27:44.630Z,5.72
2018-09-23T18:30:12.328Z,5.80
2018-09-23T18:32:39.994Z,5.86
2018-09-23T18:35:07.688Z,5.91
2018-09-23T18:37:35.405Z,5.92
2018-09-23T18:40:03.115Z,6.06
2018-09-23T18:42:30.867Z,5.97
2018-09-23T18:44:58.532Z,5.86
2018-09-23T18:50:01.927Z,5.78
2018-09-23T18:52:30.336Z,5.71
2018-09-23T18:55:03.691Z,5.68
2018-09-23T18:57:31.436Z,5.67
2018-09-23T18:59:59.101Z,5.67
2018-09-23T19:02:26.776Z,5.62
2018-09-23T19:04:54.528Z,5.66
2018-09-23T19:07:22.224Z,5.68
2018-09-23T19:09:50.028Z,5.71
2018-09-23T19:12:17.757Z,5.80
2018-09-23T19:14:45.431Z,5.84
2018-09-23T19:17:13.107Z,5.80
2018-09-23T19:19:46.473Z,5.76
2018-09-23T19:22:19.688Z,5.68
2018-09-23T19:24:47.406Z,5.70
2018-09-23T19:27:15.073Z,5.70
2018-09-23T19:29:42.757Z,5.66
2018-09-23T19:32:10.466Z,5.58
2018-09-23T19:34:38.129Z,5.50
2018-09-23T19:37:06.072Z,5.44
2018-09-23T19:39:33.747Z,5.43
2018-09-23T19:42:01.469Z,5.40
2018-09-23T19:44:29.174Z,5.41
2018-09-23T19:46:56.936Z,5.37
2018-09-23T19:49:25.038Z,5.37
2018-09-23T19:51:52.683Z,5.39
2018-09-23T19:54:20.357Z,5.35
2018-09-23T19:56:48.131Z,5.25
2018-09-23T19:59:15.821Z,5.19
2018-09-23T20:01:43.488Z,5.17
2018-09-23T20:04:11.208Z,5.14
2018-09-23T20:06:38.966Z,5.10
2018-09-23T20:09:08.632Z,5.07
2018-09-23T20:11:36.359Z,5.01
2018-09-23T20:14:04.103Z,4.98
2018-09-23T20:16:31.781Z,5.03
2018-09-23T20:18:59.440Z,5.04
2018-09-23T20:21:27.687Z,4.97
2018-09-23T20:23:55.352Z,4.88
2018-09-23T20:26:23.044Z,4.82
2018-09-23T20:28:50.764Z,4.78
2018-09-23T20:31:18.415Z,4.75
2018-09-23T20:33:46.124Z,4.67
2018-09-23T20:36:13.816Z,4.58
2018-09-23T20:38:41.496Z,4.55
2018-09-23T20:41:09.248Z,4.49
2018-09-23T20:43:36.909Z,4.47
2018-09-23T20:46:04.584Z,4.46
2018-09-23T20:48:32.263Z,4.44
2018-09-23T20:50:59.955Z,4.44
2018-09-23T20:53:27.691Z,4.50
2018-09-23T20:55:55.381Z,4.50
2018-09-23T20:58:23.080Z,4.60
2018-09-23T21:00:50.784Z,4.57
2018-09-23T21:03:18.449Z,4.54
2018-09-23T21:05:46.137Z,4.53
2018-09-23T21:08:13.853Z,4.58
2018-09-23T21:10:41.568Z,4.61
2018-09-23T21:13:09.292Z,4.60
2018-09-23T21:15:37.045Z,4.61
2018-09-23T21:18:04.792Z,4.62
2018-09-23T21:20:32.464Z,4.60
2018-09-23T21:23:00.132Z,4.58
2018-09-23T21:25:27.795Z,4.54
2018-09-23T21:27:55.510Z,4.51
2018-09-23T21:30:23.173Z,4.49
2018-09-23T21:32:50.844Z,4.48
2018-09-23T21:35:18.540Z,4.45
2018-09-23T21:37:46.192Z,4.45
2018-09-23T21:40:13.845Z,4.45
2018-09-23T21:42:41.520Z,4.48
2018-09-23T21:45:09.209Z,4.44
2018-09-23T21:47:36.881Z,4.45
2018-09-23T21:50:04.628Z,4.57
2018-09-23T21:52:32.315Z,4.62
2018-09-23T21:55:00.068Z,4.57
2018-09-23T21:57:27.731Z,4.55
2018-09-23T21:59:55.408Z,4.54
2018-09-23T22:02:23.248Z,4.54
2018-09-23T22:04:50.951Z,4.54
2018-09-23T22:07:18.616Z,4.60
2018-09-23T22:09:46.365Z,4.74
2018-09-23T22:12:14.050Z,4.75
2018-09-23T22:14:41.713Z,4.85
2018-09-23T22:17:09.408Z,4.89
2018-09-23T22:19:37.153Z,4.89
2018-09-23T22:22:04.882Z,4.90
2018-09-23T22:24:32.544Z,4.86
2018-09-23T22:27:00.352Z,4.76
2018-09-23T22:29:28.083Z,4.71
2018-09-23T22:31:55.760Z,4.74
2018-09-23T22:34:23.511Z,4.75
2018-09-23T22:36:51.192Z,4.78
2018-09-23T22:39:18.893Z,4.82
2018-09-23T22:41:46.684Z,4.79
2018-09-23T22:44:14.324Z,4.79
2018-09-23T22:46:42.020Z,4.81
2018-09-23T22:49:09.702Z,4.78
2018-09-23T22:51:37.375Z,4.83
2018-09-23T22:54:05.098Z,4.92
2018-09-23T22:56:32.775Z,5.05
2018-09-23T22:59:00.524Z,5.02
2018-09-23T23:01:28.212Z,4.95
2018-09-23T23:03:55.898Z,4.89
2018-09-23T23:06:23.544Z,4.84
2018-09-23T23:08:51.264Z,4.82
2018-09-23T23:11:18.932Z,4.76
2018-09-23T23:13:46.591Z,4.84
2018-09-23T23:16:14.277Z,4.84
2018-09-23T23:18:41.952Z,4.86
2018-09-23T23:21:09.636Z,4.96
2018-09-23T23:23:37.311Z,5.07
2018-09-23T23:26:05.056Z,5.00
2018-09-23T23:28:32.742Z,4.95
2018-09-23T23:31:00.407Z,5.00
2018-09-23T23:33:28.061Z,4.98
2018-09-23T23:35:55.775Z,4.95
2018-09-23T23:38:23.469Z,4.95
2018-09-23T23:40:51.145Z,4.92
2018-09-23T23:43:18.856Z,4.85
2018-09-23T23:45:46.595Z,4.86
2018-09-23T23:48:14.313Z,4.83
2018-09-23T23:50:41.984Z,4.89
2018-09-23T23:53:09.658Z,4.86
2018-09-23T23:55:37.344Z,4.78
2018-09-23T23:58:05.033Z,4.70
